Time;durP1;ratioP1;P1;durP2;ratioP2;P2;SDS_P1;SDS_P2;PMS_P1;PMS_P2;Temp;Humidity;BMP_temperature;BMP_pressure;BME280_temperature;BME280_humidity;BME280_pressure;Samples;Min_cycle;Max_cycle;Signal;HPM_P1;HPM_P2
2023/05/07 00:01:45;;;;;;;;;;;21.80;35.00;;;;;;21090100;28;20013;-54
2023/05/07 00:11:45;;;;;;;;;;;21.70;34.30;;;;;;21089384;28;19924;-55
2023/05/07 00:21:46;;;;;;;;;;;21.60;34.50;;;;;;21087414;28;19931;-54
2023/05/07 00:31:48;;;;;;;;;;;21.40;35.90;;;;;;21086595;28;20329;-57
2023/05/07 00:41:51;;;;;;;;;;;21.20;36.20;;;;;;21086991;28;19924;-54
2023/05/07 00:51:51;;;;;;;;;;;21.30;36.30;;;;;;21085942;28;19924;-56
2023/05/07 01:01:52;;;;;;;;;;;21.30;36.10;;;;;;21084196;28;19931;-54
2023/05/07 01:11:53;;;;;;;;;;;21.30;36.10;;;;;;21083217;28;19931;-54
2023/05/07 01:21:57;;;;;;;;;;;21.20;36.40;;;;;;21082547;28;20344;-54
2023/05/07 01:31:59;;;;;;;;;;;21.20;36.80;;;;;;21083166;28;19982;-54
2023/05/07 01:41:59;;;;;;;;;;;21.20;37.20;;;;;;21082408;28;19969;-54
2023/05/07 01:52:00;;;;;;;;;;;21.00;37.60;;;;;;21080213;28;19924;-56
2023/05/07 02:02:01;;;;;;;;;;;20.90;37.80;;;;;;21080899;28;19931;-55
2023/05/07 02:12:02;;;;;;;;;;;21.00;37.80;;;;;;21079371;28;19971;-56
2023/05/07 02:22:02;;;;;;;;;;;20.80;37.90;;;;;;21077529;28;19971;-56
2023/05/07 02:32:03;;;;;;;;;;;20.70;37.90;;;;;;21078558;28;19924;-54
2023/05/07 02:42:03;;;;;;;;;;;20.70;38.70;;;;;;21077583;28;19985;-55
2023/05/07 02:52:04;;;;;;;;;;;20.60;39.20;;;;;;21079003;28;20400;-54
2023/05/07 03:02:05;;;;;;;;;;;20.60;39.50;;;;;;21078761;28;19924;-54
2023/05/07 03:12:06;;;;;;;;;;;20.50;39.70;;;;;;21078161;28;20270;-54
2023/05/07 03:22:06;;;;;;;;;;;20.50;40.30;;;;;;21084163;28;19924;-54
2023/05/07 03:32:07;;;;;;;;;;;20.40;41.00;;;;;;21090929;28;19971;-54
2023/05/07 03:42:07;;;;;;;;;;;20.30;42.10;;;;;;21091636;28;20404;-54
2023/05/07 03:52:08;;;;;;;;;;;20.20;42.80;;;;;;21090746;28;20300;-54
2023/05/07 04:02:09;;;;;;;;;;;20.10;43.40;;;;;;21089932;28;20014;-56
2023/05/07 04:12:09;;;;;;;;;;;19.90;44.80;;;;;;21088188;28;19969;-55
2023/05/07 04:22:10;;;;;;;;;;;19.80;46.00;;;;;;21089548;28;20368;-54
2023/05/07 04:32:11;;;;;;;;;;;19.70;46.50;;;;;;21086732;28;19947;-56
2023/05/07 04:42:15;;;;;;;;;;;19.60;47.10;;;;;;21085630;28;20015;-54
2023/05/07 04:52:16;;;;;;;;;;;19.50;47.80;;;;;;21086179;28;19928;-54
2023/05/07 05:02:17;;;;;;;;;;;19.30;48.10;;;;;;21085189;28;19924;-54
2023/05/07 05:12:17;;;;;;;;;;;19.20;48.20;;;;;;21084391;28;19939;-54
2023/05/07 05:22:18;;;;;;;;;;;19.20;48.20;;;;;;21082312;28;19924;-54
2023/05/07 05:32:19;;;;;;;;;;;19.20;48.50;;;;;;21083087;28;19928;-55
2023/05/07 05:42:20;;;;;;;;;;;19.10;48.60;;;;;;21080963;28;19930;-55
2023/05/07 05:52:23;;;;;;;;;;;19.10;48.80;;;;;;21081548;28;20284;-54
2023/05/07 06:02:24;;;;;;;;;;;19.10;49.00;;;;;;21080463;28;19971;-55
2023/05/07 06:12:24;;;;;;;;;;;18.90;49.00;;;;;;21080633;28;19925;-55
2023/05/07 06:22:25;;;;;;;;;;;18.80;48.80;;;;;;21080905;28;19971;-56
2023/05/07 06:32:26;;;;;;;;;;;18.70;48.80;;;;;;21080207;28;19928;-56
2023/05/07 06:42:26;;;;;;;;;;;19.10;48.10;;;;;;21079522;28;19924;-55
2023/05/07 06:52:27;;;;;;;;;;;19.70;46.80;;;;;;21078429;28;19930;-56
2023/05/07 07:02:28;;;;;;;;;;;20.40;45.00;;;;;;21094573;28;20439;-55
2023/05/07 07:12:29;;;;;;;;;;;20.80;44.30;;;;;;21093893;28;19928;-55
2023/05/07 07:22:30;;;;;;;;;;;21.20;43.80;;;;;;21091307;28;19938;-57
2023/05/07 07:32:32;;;;;;;;;;;21.70;43.20;;;;;;21092518;28;20377;-55
2023/05/07 07:42:33;;;;;;;;;;;22.10;42.40;;;;;;21090300;28;19931;-54
2023/05/07 07:52:34;;;;;;;;;;;22.20;41.70;;;;;;21089456;28;20373;-55
2023/05/07 08:02:34;;;;;;;;;;;22.40;41.40;;;;;;21089922;28;20368;-55
2023/05/07 08:12:35;;;;;;;;;;;22.70;40.00;;;;;;21088861;28;20036;-54
2023/05/07 08:22:36;;;;;;;;;;;22.90;39.50;;;;;;21087311;28;19924;-55
2023/05/07 08:32:36;;;;;;;;;;;23.20;38.50;;;;;;21087317;28;19960;-57
2023/05/07 08:42:37;;;;;;;;;;;23.40;38.00;;;;;;21085600;28;19931;-54
2023/05/07 08:52:39;;;;;;;;;;;23.60;37.60;;;;;;21084504;28;19932;-55
2023/05/07 09:02:39;;;;;;;;;;;23.70;37.10;;;;;;21085438;28;19924;-54
2023/05/07 09:12:40;;;;;;;;;;;24.00;36.80;;;;;;21084583;28;19925;-55
2023/05/07 09:22:41;;;;;;;;;;;24.10;36.00;;;;;;21080748;28;19976;-55
2023/05/07 09:32:42;;;;;;;;;;;24.20;35.90;;;;;;21081455;28;19932;-55
2023/05/07 09:42:42;;;;;;;;;;;24.20;35.50;;;;;;21080642;28;19975;-54
2023/05/07 09:52:43;;;;;;;;;;;24.20;35.30;;;;;;21080773;28;19924;-55
2023/05/07 10:02:48;;;;;;;;;;;24.30;34.80;;;;;;21076784;28;19924;-55
2023/05/07 10:12:49;;;;;;;;;;;24.40;35.10;;;;;;21075456;28;19928;-57
2023/05/07 10:22:51;;;;;;;;;;;24.60;34.20;;;;;;21074824;28;19928;-56
2023/05/07 10:32:55;;;;;;;;;;;24.60;33.90;;;;;;21085870;28;19977;-57
2023/05/07 10:43:04;;;;;;;;;;;24.70;33.70;;;;;;21093585;28;20361;-55
2023/05/07 10:53:17;;;;;;;;;;;25.20;33.00;;;;;;21093109;28;19924;-56
2023/05/07 11:03:18;;;;;;;;;;;25.20;33.30;;;;;;21092215;28;19935;-55
2023/05/07 11:13:38;;;;;;;;;;;25.50;32.50;;;;;;21093168;28;20018;-55
2023/05/07 11:23:40;;;;;;;;;;;25.80;32.00;;;;;;21092045;28;19924;-55
2023/05/07 11:33:43;;;;;;;;;;;25.80;31.00;;;;;;21092155;28;19931;-56
2023/05/07 11:43:59;;;;;;;;;;;26.10;30.40;;;;;;21090550;28;19924;-55
2023/05/07 11:54:00;;;;;;;;;;;26.10;30.30;;;;;;21089976;28;19928;-55
2023/05/07 12:04:02;;;;;;;;;;;25.90;30.60;;;;;;21086911;28;19930;-55
2023/05/07 12:14:03;;;;;;;;;;;25.80;30.10;;;;;;21087555;28;19927;-55
2023/05/07 12:24:04;;;;;;;;;;;26.30;29.20;;;;;;21084617;28;20050;-55
2023/05/07 12:34:04;;;;;;;;;;;26.50;29.10;;;;;;21086067;28;20373;-57
2023/05/07 12:44:05;;;;;;;;;;;26.50;29.40;;;;;;21084883;28;19947;-55
2023/05/07 12:54:06;;;;;;;;;;;26.70;28.80;;;;;;21083397;28;20013;-55
2023/05/07 13:04:06;;;;;;;;;;;26.80;28.50;;;;;;21083314;28;19967;-55
2023/05/07 13:14:08;;;;;;;;;;;26.70;28.50;;;;;;21081211;28;19924;-55
2023/05/07 13:24:08;;;;;;;;;;;26.60;28.40;;;;;;21080787;28;19928;-56
2023/05/07 13:34:09;;;;;;;;;;;27.10;28.30;;;;;;21082356;28;19983;-55
2023/05/07 13:44:10;;;;;;;;;;;27.30;28.10;;;;;;21081464;28;20292;-56
2023/05/07 13:54:11;;;;;;;;;;;27.50;27.50;;;;;;21080397;28;19931;-54
2023/05/07 14:04:12;;;;;;;;;;;27.90;26.70;;;;;;21078647;28;19924;-55
2023/05/07 14:14:12;;;;;;;;;;;27.60;27.10;;;;;;21080338;28;19959;-54
2023/05/07 14:24:13;;;;;;;;;;;27.60;27.20;;;;;;21077750;28;19928;-55
2023/05/07 14:34:14;;;;;;;;;;;27.30;27.30;;;;;;21079455;28;19977;-56
2023/05/07 14:44:14;;;;;;;;;;;27.20;27.60;;;;;;21079113;28;19924;-56
2023/05/07 14:54:15;;;;;;;;;;;27.00;28.00;;;;;;21079162;28;19931;-55
2023/05/07 15:04:15;;;;;;;;;;;27.00;27.70;;;;;;21078348;28;19972;-56
2023/05/07 15:14:16;;;;;;;;;;;27.20;27.60;;;;;;21079241;28;19928;-55
2023/05/07 15:24:17;;;;;;;;;;;27.20;27.50;;;;;;21091630;28;19931;-57
2023/05/07 15:34:17;;;;;;;;;;;27.40;27.10;;;;;;21090667;28;19931;-56
2023/05/07 15:44:18;;;;;;;;;;;27.20;27.80;;;;;;21089733;28;20050;-55
2023/05/07 15:54:20;;;;;;;;;;;27.10;27.70;;;;;;21088879;28;20019;-56
2023/05/07 16:04:20;;;;;;;;;;;27.60;26.80;;;;;;21089525;28;19924;-54
2023/05/07 16:14:21;;;;;;;;;;;27.40;26.80;;;;;;21088680;28;20026;-55
2023/05/07 16:24:22;;;;;;;;;;;27.50;25.90;;;;;;21086028;28;20409;-54
2023/05/07 16:34:22;;;;;;;;;;;27.70;25.80;;;;;;21087082;28;19989;-55
2023/05/07 16:44:23;;;;;;;;;;;27.80;25.50;;;;;;21086370;28;19924;-56
2023/05/07 16:54:24;;;;;;;;;;;27.70;25.30;;;;;;21085521;28;19935;-54
2023/05/07 17:04:25;;;;;;;;;;;27.60;25.50;;;;;;21083522;28;19924;-54
2023/05/07 17:14:25;;;;;;;;;;;27.60;25.30;;;;;;21079532;28;19931;-54
2023/05/07 17:24:26;;;;;;;;;;;27.60;25.00;;;;;;20992400;28;19971;-55
2023/05/07 17:34:27;;;;;;;;;;;27.60;25.30;;;;;;20997368;28;20011;-55
2023/05/07 17:44:28;;;;;;;;;;;27.40;25.70;;;;;;20996812;28;20436;-55
2023/05/07 17:54:31;;;;;;;;;;;27.10;26.50;;;;;;21079261;28;21354;-54
2023/05/07 18:04:31;;;;;;;;;;;27.00;26.50;;;;;;21080944;28;20377;-55
2023/05/07 18:14:32;;;;;;;;;;;26.70;26.80;;;;;;21078865;28;19978;-55
2023/05/07 18:24:32;;;;;;;;;;;26.50;26.80;;;;;;21078508;28;19924;-57
2023/05/07 18:34:33;;;;;;;;;;;26.40;26.60;;;;;;21078942;28;19979;-55
2023/05/07 18:44:37;;;;;;;;;;;26.10;26.20;;;;;;21079361;28;19923;-57
2023/05/07 18:54:37;;;;;;;;;;;25.90;26.40;;;;;;21089727;28;19931;-56
2023/05/07 19:04:38;;;;;;;;;;;25.60;26.90;;;;;;21095051;28;19928;-55
2023/05/07 19:14:41;;;;;;;;;;;25.40;27.20;;;;;;21095045;28;20022;-56
2023/05/07 19:24:42;;;;;;;;;;;25.30;27.00;;;;;;21092267;28;19932;-54
2023/05/07 19:34:42;;;;;;;;;;;25.10;27.00;;;;;;21090508;28;19990;-56
2023/05/07 19:44:43;;;;;;;;;;;24.90;27.40;;;;;;21090246;28;19973;-56
2023/05/07 19:54:44;;;;;;;;;;;24.70;27.90;;;;;;21090888;28;19924;-55
2023/05/07 20:04:44;;;;;;;;;;;24.50;28.40;;;;;;21088604;28;19924;-56
2023/05/07 20:14:45;;;;;;;;;;;24.40;28.90;;;;;;21089799;28;19924;-54
2023/05/07 20:24:45;;;;;;;;;;;24.60;29.20;;;;;;21087121;28;19973;-55
2023/05/07 20:34:46;;;;;;;;;;;24.40;29.30;;;;;;21087058;28;19931;-56
2023/05/07 20:44:47;;;;;;;;;;;24.40;29.20;;;;;;21087233;28;19924;-54
2023/05/07 20:54:48;;;;;;;;;;;24.10;29.50;;;;;;21086261;28;19924;-55
2023/05/07 21:04:51;;;;;;;;;;;24.00;29.40;;;;;;21085545;28;20285;-55
2023/05/07 21:14:51;;;;;;;;;;;23.90;29.60;;;;;;21084589;28;20450;-55
2023/05/07 21:24:52;;;;;;;;;;;23.80;30.00;;;;;;21082938;28;20007;-56
2023/05/07 21:34:52;;;;;;;;;;;23.60;30.50;;;;;;21083075;28;19924;-55
2023/05/07 21:44:53;;;;;;;;;;;23.50;31.40;;;;;;21081093;28;19970;-56
2023/05/07 21:54:54;;;;;;;;;;;23.30;32.10;;;;;;21081834;28;19931;-56
2023/05/07 22:04:54;;;;;;;;;;;23.20;32.20;;;;;;21080890;28;19928;-55
2023/05/07 22:14:55;;;;;;;;;;;22.90;32.80;;;;;;21079057;28;19982;-56
2023/05/07 22:24:55;;;;;;;;;;;22.70;33.00;;;;;;21086801;28;19924;-55
2023/05/07 22:34:56;;;;;;;;;;;22.60;33.30;;;;;;21106367;28;19924;-55
2023/05/07 22:44:57;;;;;;;;;;;22.50;33.10;;;;;;21107279;28;20365;-55
2023/05/07 22:54:57;;;;;;;;;;;22.40;33.10;;;;;;21107005;28;19987;-56
2023/05/07 23:04:59;;;;;;;;;;;22.20;32.90;;;;;;21106402;28;19925;-54
2023/05/07 23:15:00;;;;;;;;;;;22.10;33.10;;;;;;21104675;28;19928;-55
2023/05/07 23:25:00;;;;;;;;;;;22.00;33.90;;;;;;21105483;28;19924;-54
2023/05/07 23:35:01;;;;;;;;;;;21.90;35.40;;;;;;21102685;28;19960;-54
2023/05/07 23:45:02;;;;;;;;;;;21.80;36.50;;;;;;21091253;28;19994;-55
2023/05/07 23:55:02;;;;;;;;;;;21.70;37.50;;;;;;21090645;28;19959;-55
